Time;durP1;ratioP1;P1;durP2;ratioP2;P2;SDS_P1;SDS_P2;PMS_P1;PMS_P2;Temp;Humidity;BMP_temperature;BMP_pressure;BME280_temperature;BME280_humidity;BME280_pressure;Samples;Min_cycle;Max_cycle;Signal;HPM_P1;HPM_P2
2021/12/29 00:02:47;;;;;;;27.00;15.60;;;4.00;99.90;;;;;;6276572;28;20823;-61
2021/12/29 00:05:50;;;;;;;23.23;14.87;;;3.90;99.90;;;;;;6275916;28;21045;-63
2021/12/29 00:08:55;;;;;;;22.53;16.57;;;4.00;99.90;;;;;;6276298;28;20481;-62
2021/12/29 00:12:00;;;;;;;26.57;17.07;;;4.00;99.90;;;;;;6271374;28;20488;-62
2021/12/29 00:15:04;;;;;;;22.13;15.73;;;4.00;99.90;;;;;;6275904;28;20992;-62
2021/12/29 00:18:07;;;;;;;27.50;17.83;;;4.00;99.90;;;;;;6276199;28;20489;-62
2021/12/29 00:21:11;;;;;;;25.47;17.17;;;4.00;99.90;;;;;;6275759;28;20481;-62
2021/12/29 00:24:14;;;;;;;22.37;14.97;;;3.90;99.90;;;;;;6276111;28;20474;-61
2021/12/29 00:27:18;;;;;;;27.53;16.03;;;3.90;99.90;;;;;;6275940;28;20783;-62
2021/12/29 00:30:23;;;;;;;26.80;16.90;;;3.70;99.90;;;;;;6275904;28;20449;-61
2021/12/29 00:33:26;;;;;;;30.47;21.20;;;3.70;99.90;;;;;;6275231;28;20478;-62
2021/12/29 00:36:29;;;;;;;37.03;25.37;;;3.70;99.90;;;;;;6276025;28;20438;-61
2021/12/29 00:39:33;;;;;;;33.70;23.20;;;3.70;99.90;;;;;;6262500;28;20841;-61
2021/12/29 00:42:38;;;;;;;25.77;15.93;;;3.70;99.90;;;;;;6251428;28;20532;-62
2021/12/29 00:45:41;;;;;;;26.03;16.30;;;3.70;99.90;;;;;;6250826;28;20471;-62
2021/12/29 00:48:47;;;;;;;27.47;17.57;;;3.80;99.90;;;;;;6257895;28;20524;-61
2021/12/29 00:51:50;;;;;;;24.37;15.90;;;3.80;99.90;;;;;;6275582;28;20473;-61
2021/12/29 00:54:53;;;;;;;25.30;16.90;;;3.80;99.90;;;;;;6275319;28;20473;-61
2021/12/29 00:57:58;;;;;;;23.10;16.20;;;3.70;99.90;;;;;;6275260;28;20462;-61
2021/12/29 01:01:02;;;;;;;20.40;15.77;;;3.70;99.90;;;;;;6275075;28;20821;-62
2021/12/29 01:04:06;;;;;;;29.93;18.10;;;3.70;99.90;;;;;;6275435;28;20472;-62
2021/12/29 01:07:10;;;;;;;26.30;16.40;;;3.70;99.90;;;;;;6274434;28;20818;-62
2021/12/29 01:10:14;;;;;;;30.13;18.47;;;3.70;99.90;;;;;;6274614;28;20473;-61
2021/12/29 01:13:28;;;;;;;28.37;17.43;;;3.70;99.90;;;;;;6270866;28;20474;-62
2021/12/29 01:16:38;;;;;;;28.20;16.20;;;3.70;99.90;;;;;;6274976;28;20470;-61
2021/12/29 01:19:41;;;;;;;25.50;15.87;;;3.80;99.90;;;;;;6274989;28;20473;-61
2021/12/29 01:22:44;;;;;;;22.97;16.77;;;3.80;99.90;;;;;;6274739;28;20488;-62
2021/12/29 01:25:47;;;;;;;22.20;16.40;;;3.80;99.90;;;;;;6273987;28;20973;-62
2021/12/29 01:28:52;;;;;;;26.93;17.00;;;3.70;99.90;;;;;;6274308;28;20481;-62
2021/12/29 01:31:55;;;;;;;23.53;16.50;;;3.70;99.90;;;;;;6274575;28;20985;-62
2021/12/29 01:34:58;;;;;;;32.83;17.37;;;3.70;99.90;;;;;;6274874;28;20541;-61
2021/12/29 01:38:01;;;;;;;23.80;15.70;;;3.60;99.90;;;;;;6274214;28;20476;-61
2021/12/29 01:41:05;;;;;;;29.50;16.30;;;3.60;99.90;;;;;;6250195;28;20471;-61
2021/12/29 01:44:11;;;;;;;20.70;15.30;;;3.60;99.90;;;;;;6250135;28;20478;-61
2021/12/29 01:47:24;;;;;;;21.80;16.23;;;3.60;99.90;;;;;;6250141;28;20932;-61
2021/12/29 01:50:29;;;;;;;25.57;16.67;;;3.60;99.90;;;;;;6249541;28;20466;-61
2021/12/29 01:53:34;;;;;;;28.63;18.40;;;3.60;99.90;;;;;;6249478;28;20483;-61
2021/12/29 01:56:38;;;;;;;26.07;16.60;;;3.60;99.90;;;;;;6249520;28;20470;-61
2021/12/29 01:59:43;;;;;;;28.40;16.63;;;3.50;99.90;;;;;;6249282;28;20962;-62
2021/12/29 02:02:46;;;;;;;24.83;16.17;;;3.50;99.90;;;;;;6249850;28;20955;-61
2021/12/29 02:05:49;;;;;;;23.50;16.30;;;3.50;99.90;;;;;;6249871;28;20479;-61
2021/12/29 02:08:55;;;;;;;20.63;16.20;;;3.50;99.90;;;;;;6274044;28;20938;-62
2021/12/29 02:11:58;;;;;;;19.03;13.73;;;3.60;99.90;;;;;;6273945;28;20470;-61
2021/12/29 02:15:03;;;;;;;23.17;16.30;;;3.60;99.90;;;;;;6273936;28;20478;-61
2021/12/29 02:18:13;;;;;;;25.57;16.33;;;3.60;99.90;;;;;;6264038;28;20569;-62
2021/12/29 02:21:20;;;;;;;24.43;15.80;;;3.60;99.90;;;;;;6274147;28;20755;-62
2021/12/29 02:24:35;;;;;;;23.13;15.77;;;3.50;99.90;;;;;;6278533;28;20523;-62
2021/12/29 02:27:40;;;;;;;23.33;15.03;;;3.40;99.90;;;;;;6279048;28;20454;-62
2021/12/29 02:30:43;;;;;;;22.97;15.50;;;3.40;99.90;;;;;;6278558;28;20971;-62
2021/12/29 02:33:46;;;;;;;20.10;13.83;;;3.40;99.90;;;;;;6279316;28;20968;-61
2021/12/29 02:36:51;;;;;;;19.63;14.63;;;3.40;99.90;;;;;;6278563;28;20857;-61
2021/12/29 02:39:54;;;;;;;19.20;14.30;;;3.30;99.90;;;;;;6278616;28;20458;-61
2021/12/29 02:42:57;;;;;;;17.93;13.10;;;3.30;99.90;;;;;;6278352;28;20481;-60
2021/12/29 02:46:00;;;;;;;16.60;13.00;;;3.30;99.90;;;;;;6279056;28;20492;-61
2021/12/29 02:49:04;;;;;;;16.27;12.80;;;3.30;99.90;;;;;;6278951;28;20545;-62
2021/12/29 02:52:11;;;;;;;18.60;13.57;;;3.20;99.90;;;;;;6278625;28;20484;-61
2021/12/29 02:55:15;;;;;;;18.03;12.47;;;3.10;99.90;;;;;;6278254;28;20482;-62
2021/12/29 02:58:18;;;;;;;18.67;14.90;;;3.10;99.90;;;;;;6278530;28;20470;-60
2021/12/29 03:01:21;;;;;;;21.53;13.50;;;3.10;99.90;;;;;;6278058;28;20477;-60
2021/12/29 03:04:25;;;;;;;18.93;14.30;;;3.10;99.90;;;;;;6277673;28;20474;-60
2021/12/29 03:07:29;;;;;;;19.67;14.13;;;3.00;99.90;;;;;;6277617;28;20958;-61
2021/12/29 03:10:32;;;;;;;15.57;12.13;;;3.10;99.90;;;;;;6277934;28;20524;-61
2021/12/29 03:13:40;;;;;;;15.87;12.50;;;3.10;99.90;;;;;;6277893;28;20608;-62
2021/12/29 03:16:43;;;;;;;17.43;12.80;;;3.00;99.90;;;;;;6277352;28;20537;-62
2021/12/29 03:19:46;;;;;;;17.27;12.37;;;3.00;99.90;;;;;;6273980;28;20482;-62
2021/12/29 03:22:51;;;;;;;14.93;11.33;;;3.10;99.90;;;;;;6277558;28;20978;-63
2021/12/29 03:25:54;;;;;;;17.20;13.17;;;3.20;99.90;;;;;;6278329;28;20481;-63
2021/12/29 03:28:57;;;;;;;15.93;12.30;;;3.10;99.90;;;;;;6277543;28;20540;-64
2021/12/29 03:32:06;;;;;;;16.90;12.87;;;3.10;99.90;;;;;;6278417;28;20473;-63
2021/12/29 03:35:10;;;;;;;15.80;13.73;;;3.10;99.90;;;;;;6277326;28;20490;-65
2021/12/29 03:38:17;;;;;;;16.90;12.57;;;3.20;99.90;;;;;;6277943;28;20466;-62
2021/12/29 03:41:24;;;;;;;15.93;12.47;;;3.10;99.90;;;;;;6275214;28;20974;-62
2021/12/29 03:44:27;;;;;;;16.90;12.83;;;3.10;99.90;;;;;;6275159;28;20485;-63
2021/12/29 03:47:32;;;;;;;17.00;11.33;;;3.10;99.90;;;;;;6274224;28;20547;-62
2021/12/29 03:50:36;;;;;;;18.10;12.50;;;3.10;99.90;;;;;;6274531;28;20470;-62
2021/12/29 03:53:41;;;;;;;13.40;11.00;;;3.00;99.90;;;;;;6274894;28;20843;-63
2021/12/29 03:56:44;;;;;;;16.80;12.43;;;3.10;99.90;;;;;;6275307;28;20470;-63
2021/12/29 03:59:48;;;;;;;18.13;12.30;;;3.10;99.90;;;;;;6275133;28;20509;-62
2021/12/29 04:02:51;;;;;;;17.00;12.90;;;3.10;99.90;;;;;;6276369;28;20965;-62
2021/12/29 04:05:54;;;;;;;15.73;12.63;;;3.20;99.90;;;;;;6275488;28;21004;-61
2021/12/29 04:08:59;;;;;;;16.30;13.17;;;3.30;99.90;;;;;;6276274;28;20758;-62
2021/12/29 04:12:02;;;;;;;17.67;12.10;;;3.30;99.90;;;;;;6276676;28;20485;-62
2021/12/29 04:15:06;;;;;;;16.90;13.20;;;3.40;99.90;;;;;;6276431;28;20793;-63
2021/12/29 04:18:25;;;;;;;13.93;12.33;;;3.40;99.90;;;;;;6276382;28;21099;-63
2021/12/29 04:21:28;;;;;;;14.60;13.07;;;3.50;99.90;;;;;;6276103;28;20454;-63
2021/12/29 04:24:33;;;;;;;17.10;11.80;;;3.50;99.90;;;;;;6276357;28;20458;-63
2021/12/29 04:27:36;;;;;;;17.17;13.30;;;3.50;99.90;;;;;;6276699;28;20462;-63
2021/12/29 04:30:39;;;;;;;17.77;14.27;;;3.40;99.90;;;;;;6276442;28;20469;-63
2021/12/29 04:33:43;;;;;;;15.57;13.60;;;3.40;99.90;;;;;;6275965;28;20485;-61
2021/12/29 04:36:46;;;;;;;15.90;11.23;;;3.30;99.90;;;;;;6276238;28;20477;-62
2021/12/29 04:39:51;;;;;;;16.77;12.00;;;3.30;99.90;;;;;;6276384;28;20466;-62
2021/12/29 04:42:54;;;;;;;19.47;14.70;;;3.30;99.90;;;;;;6276046;28;20824;-62
2021/12/29 04:46:02;;;;;;;18.87;14.10;;;3.30;99.90;;;;;;6275520;28;20474;-62
2021/12/29 04:49:08;;;;;;;19.17;14.03;;;3.30;99.90;;;;;;6276006;28;20798;-62
2021/12/29 04:52:13;;;;;;;19.77;14.13;;;3.30;99.90;;;;;;6275628;28;20470;-62
2021/12/29 04:55:18;;;;;;;21.57;15.27;;;3.30;99.90;;;;;;6276321;28;20485;-63
2021/12/29 04:58:21;;;;;;;23.10;16.73;;;3.30;99.90;;;;;;6275731;28;20481;-62
2021/12/29 05:01:25;;;;;;;24.73;15.83;;;3.30;99.90;;;;;;6276034;28;20470;-62
2021/12/29 05:04:33;;;;;;;23.60;16.20;;;3.20;99.90;;;;;;6275819;28;20478;-62
2021/12/29 05:11:00;;;;;;;26.50;16.60;;;3.20;99.90;;;;;;6275362;28;20477;-61
2021/12/29 05:14:03;;;;;;;24.63;15.63;;;3.20;99.90;;;;;;6275679;28;20470;-62
2021/12/29 05:17:07;;;;;;;30.27;16.00;;;3.10;99.90;;;;;;6275585;28;20473;-62
2021/12/29 05:20:11;;;;;;;28.93;16.13;;;3.20;99.90;;;;;;6275425;28;20941;-63
2021/12/29 05:23:14;;;;;;;27.50;16.37;;;3.20;99.90;;;;;;6275022;28;20478;-62
2021/12/29 05:26:19;;;;;;;22.80;15.90;;;3.20;99.90;;;;;;6275347;28;20474;-63
2021/12/29 05:29:22;;;;;;;42.97;15.63;;;3.00;99.90;;;;;;6265320;28;20474;-63
2021/12/29 05:32:25;;;;;;;29.90;16.30;;;2.80;99.90;;;;;;6274898;28;20561;-63
2021/12/29 05:35:28;;;;;;;28.17;16.60;;;2.80;99.90;;;;;;6274354;28;20483;-63
2021/12/29 05:38:32;;;;;;;43.13;16.50;;;2.80;99.90;;;;;;6274807;28;20933;-62
2021/12/29 05:41:36;;;;;;;23.27;16.67;;;2.80;99.90;;;;;;6274791;28;20485;-62
2021/12/29 05:44:39;;;;;;;26.60;16.60;;;2.90;99.90;;;;;;6274279;28;20486;-63
2021/12/29 05:47:44;;;;;;;21.23;15.07;;;3.00;99.90;;;;;;6275002;28;20485;-62
2021/12/29 05:50:47;;;;;;;27.03;15.10;;;3.00;99.90;;;;;;6274338;28;20470;-62
2021/12/29 05:53:51;;;;;;;33.53;15.27;;;3.00;99.90;;;;;;6275203;28;20504;-62
2021/12/29 05:56:55;;;;;;;21.97;15.57;;;3.10;99.90;;;;;;6274600;28;20473;-63
2021/12/29 05:59:58;;;;;;;29.60;15.70;;;3.10;99.90;;;;;;6280211;28;20478;-63
2021/12/29 06:03:01;;;;;;;20.70;15.30;;;3.00;99.90;;;;;;6277379;28;20547;-63
2021/12/29 06:06:05;;;;;;;19.60;13.30;;;3.00;99.90;;;;;;6279759;28;20484;-63
2021/12/29 06:09:08;;;;;;;16.13;13.17;;;3.00;99.90;;;;;;6279818;28;20484;-63
2021/12/29 06:12:13;;;;;;;19.30;15.10;;;3.10;99.90;;;;;;6278945;28;20478;-63
2021/12/29 06:15:16;;;;;;;20.80;14.83;;;3.10;99.90;;;;;;6279088;28;20524;-63
2021/12/29 06:18:20;;;;;;;20.37;14.70;;;3.10;99.90;;;;;;6279287;28;20438;-63
2021/12/29 06:21:23;;;;;;;19.90;16.37;;;3.20;99.90;;;;;;6279764;28;20460;-63
2021/12/29 06:24:26;;;;;;;21.53;14.70;;;3.20;99.90;;;;;;6278668;28;20476;-63
2021/12/29 06:27:32;;;;;;;21.63;14.37;;;3.10;99.90;;;;;;6279202;28;20513;-63
2021/12/29 06:30:35;;;;;;;20.30;14.47;;;3.20;99.90;;;;;;6279548;28;20778;-63
2021/12/29 06:33:39;;;;;;;15.73;12.73;;;3.20;99.90;;;;;;6278785;28;20559;-62
2021/12/29 06:36:42;;;;;;;19.90;12.93;;;3.20;99.90;;;;;;6279230;28;20489;-62
2021/12/29 06:39:46;;;;;;;15.30;12.83;;;3.30;99.90;;;;;;6279397;28;20478;-63
2021/12/29 06:42:51;;;;;;;18.13;12.10;;;3.30;99.90;;;;;;6278849;28;20466;-63
2021/12/29 06:45:57;;;;;;;17.00;12.80;;;3.30;99.90;;;;;;6278926;28;20523;-62
2021/12/29 06:49:01;;;;;;;18.40;12.40;;;3.40;99.90;;;;;;6278568;28;20797;-63
2021/12/29 06:52:05;;;;;;;17.10;13.40;;;3.40;99.90;;;;;;6278487;28;20802;-64
2021/12/29 06:55:09;;;;;;;17.20;13.60;;;3.50;99.90;;;;;;6278551;28;20482;-63
2021/12/29 06:58:14;;;;;;;19.70;16.83;;;3.60;99.90;;;;;;6278967;28;20466;-64
2021/12/29 07:01:17;;;;;;;18.10;14.13;;;3.60;99.90;;;;;;6278389;28;20814;-64
2021/12/29 07:04:23;;;;;;;15.20;12.53;;;3.70;99.90;;;;;;6277819;28;20482;-63
2021/12/29 07:07:26;;;;;;;18.07;13.17;;;3.70;99.90;;;;;;6278159;28;20802;-64
2021/12/29 07:10:29;;;;;;;16.03;13.00;;;3.70;99.90;;;;;;6277569;28;20465;-64
2021/12/29 07:13:34;;;;;;;18.43;15.07;;;3.70;99.90;;;;;;6277991;28;20946;-63
2021/12/29 07:16:38;;;;;;;16.17;13.00;;;3.80;99.90;;;;;;6278253;28;20470;-63
2021/12/29 07:19:45;;;;;;;15.47;12.17;;;3.70;99.90;;;;;;6277967;28;20478;-63
2021/12/29 07:22:48;;;;;;;15.97;13.27;;;3.70;99.90;;;;;;6277548;28;20485;-64
2021/12/29 07:25:51;;;;;;;20.03;17.13;;;3.80;99.90;;;;;;6277968;28;20810;-63
2021/12/29 07:28:56;;;;;;;19.40;15.17;;;3.80;99.90;;;;;;6277589;28;20796;-63
2021/12/29 07:32:01;;;;;;;16.10;13.37;;;3.80;99.90;;;;;;6277939;28;20489;-63
2021/12/29 07:35:05;;;;;;;16.10;13.40;;;3.90;99.90;;;;;;6277479;28;20809;-63
2021/12/29 07:38:08;;;;;;;15.70;13.50;;;4.10;99.90;;;;;;6263395;28;20485;-63
2021/12/29 07:41:13;;;;;;;14.87;12.77;;;4.20;99.90;;;;;;6277726;28;20528;-63
2021/12/29 07:44:18;;;;;;;13.57;11.77;;;4.30;99.90;;;;;;6277161;28;20474;-63
2021/12/29 07:47:21;;;;;;;13.13;11.90;;;4.30;99.90;;;;;;6277145;28;20477;-63
2021/12/29 07:50:24;;;;;;;14.73;13.13;;;4.40;99.90;;;;;;6276794;28;20799;-63
2021/12/29 07:53:37;;;;;;;16.07;12.30;;;4.50;99.90;;;;;;6276863;28;20540;-63
2021/12/29 07:56:41;;;;;;;16.57;14.17;;;4.60;99.90;;;;;;6277337;28;20485;-63
2021/12/29 07:59:45;;;;;;;14.23;12.73;;;4.60;99.90;;;;;;6276761;28;20466;-63
2021/12/29 08:02:50;;;;;;;15.53;12.30;;;4.50;99.90;;;;;;6276512;28;20469;-63
2021/12/29 08:05:53;;;;;;;15.90;13.90;;;4.50;99.90;;;;;;6276183;28;20474;-63
2021/12/29 08:08:57;;;;;;;14.40;12.03;;;4.50;99.90;;;;;;6275049;28;20988;-63
2021/12/29 08:12:00;;;;;;;15.47;12.20;;;4.50;99.90;;;;;;6275073;28;20970;-63
2021/12/29 08:15:05;;;;;;;16.43;13.10;;;4.60;99.90;;;;;;6274951;28;20493;-63
2021/12/29 08:18:09;;;;;;;14.53;13.03;;;4.70;99.90;;;;;;6275531;28;20470;-64
2021/12/29 08:21:12;;;;;;;15.20;12.03;;;4.60;99.90;;;;;;6274783;28;20478;-63
2021/12/29 08:24:15;;;;;;;16.07;13.63;;;4.70;99.90;;;;;;6276526;28;20458;-63
2021/12/29 08:27:18;;;;;;;14.83;13.20;;;4.60;99.90;;;;;;6276756;28;20453;-63
2021/12/29 08:30:23;;;;;;;14.73;12.40;;;4.70;99.90;;;;;;6276394;28;20478;-63
2021/12/29 08:33:27;;;;;;;16.93;12.63;;;4.80;99.90;;;;;;6276535;28;20497;-63
2021/12/29 08:36:30;;;;;;;15.03;13.33;;;5.10;99.90;;;;;;6276579;28;20435;-63
2021/12/29 08:39:33;;;;;;;12.97;11.63;;;5.30;99.90;;;;;;6266702;28;21053;-61
2021/12/29 08:42:37;;;;;;;15.40;12.87;;;5.50;99.90;;;;;;6276057;28;20458;-62
2021/12/29 08:45:43;;;;;;;15.37;13.20;;;5.80;99.90;;;;;;6275567;28;20466;-62
2021/12/29 08:48:46;;;;;;;15.30;12.97;;;6.00;99.90;;;;;;6275380;28;20557;-62
2021/12/29 08:51:50;;;;;;;16.97;13.57;;;6.00;99.90;;;;;;6275820;28;20470;-63
2021/12/29 08:54:53;;;;;;;16.40;13.70;;;6.10;99.90;;;;;;6275271;28;20484;-63
2021/12/29 08:57:56;;;;;;;17.83;15.30;;;6.30;99.90;;;;;;6276196;28;20476;-63
2021/12/29 09:01:01;;;;;;;16.97;13.53;;;6.40;99.90;;;;;;6275117;28;20466;-63
2021/12/29 09:04:05;;;;;;;17.80;14.10;;;6.50;99.90;;;;;;6275437;28;20481;-63
2021/12/29 09:07:08;;;;;;;20.20;15.47;;;6.70;99.90;;;;;;6275398;28;20470;-62
2021/12/29 09:10:13;;;;;;;15.00;13.00;;;6.80;99.90;;;;;;6275449;28;20528;-62
2021/12/29 09:13:16;;;;;;;17.80;14.83;;;6.80;99.90;;;;;;6275269;28;20477;-63
2021/12/29 09:16:21;;;;;;;17.60;15.80;;;6.80;99.90;;;;;;6275125;28;20466;-64
2021/12/29 09:19:25;;;;;;;16.23;14.40;;;6.70;99.90;;;;;;6274852;28;20469;-64
2021/12/29 09:22:28;;;;;;;17.97;14.17;;;6.80;99.90;;;;;;6275291;28;20466;-64
2021/12/29 09:25:32;;;;;;;16.30;14.50;;;6.90;99.90;;;;;;6274885;28;20493;-63
2021/12/29 09:28:35;;;;;;;19.20;15.23;;;7.00;99.90;;;;;;6274763;28;20937;-64
2021/12/29 09:31:40;;;;;;;16.77;14.47;;;7.20;99.90;;;;;;6275026;28;20494;-62
2021/12/29 09:34:48;;;;;;;21.20;15.67;;;7.30;99.90;;;;;;6274696;28;20508;-62
2021/12/29 09:37:52;;;;;;;15.30;13.70;;;7.30;99.90;;;;;;6275262;28;20481;-62
2021/12/29 09:40:56;;;;;;;16.77;14.07;;;7.30;99.90;;;;;;6274691;28;20794;-62
2021/12/29 09:43:59;;;;;;;16.47;14.70;;;7.40;99.90;;;;;;6270475;28;20482;-62
2021/12/29 09:47:06;;;;;;;19.10;15.40;;;7.40;99.90;;;;;;6275176;28;20488;-62
2021/12/29 09:50:12;;;;;;;17.30;15.50;;;7.60;99.90;;;;;;6274580;28;20485;-63
2021/12/29 09:53:17;;;;;;;16.87;14.37;;;7.80;99.90;;;;;;6274278;28;20485;-63
2021/12/29 09:56:20;;;;;;;17.53;15.70;;;8.00;99.90;;;;;;6274884;28;20474;-63
2021/12/29 09:59:24;;;;;;;20.20;14.83;;;8.10;99.90;;;;;;6274786;28;20793;-63
2021/12/29 10:02:28;;;;;;;17.17;15.27;;;8.10;99.90;;;;;;6275103;28;20903;-62
2021/12/29 10:05:33;;;;;;;18.80;15.77;;;8.20;99.90;;;;;;6274638;28;20541;-62
2021/12/29 10:08:38;;;;;;;17.83;15.43;;;8.30;99.90;;;;;;6270674;28;20818;-63
2021/12/29 10:11:43;;;;;;;18.97;15.10;;;8.60;99.90;;;;;;6262976;28;20459;-64
2021/12/29 10:14:51;;;;;;;16.73;14.97;;;8.90;99.90;;;;;;6265592;28;20957;-62
2021/12/29 10:18:03;;;;;;;16.10;14.50;;;9.20;99.90;;;;;;6266926;28;20473;-63
2021/12/29 10:21:09;;;;;;;17.37;15.50;;;9.50;99.90;;;;;;6262329;28;20482;-66
2021/12/29 10:24:13;;;;;;;16.30;14.57;;;9.80;99.80;;;;;;6266754;28;20481;-66
2021/12/29 10:27:19;;;;;;;14.53;12.70;;;10.00;98.50;;;;;;6272791;28;20477;-63
2021/12/29 10:30:25;;;;;;;17.00;15.20;;;10.10;98.30;;;;;;6268803;28;20488;-63
2021/12/29 10:33:39;;;;;;;15.77;14.17;;;10.20;97.80;;;;;;6273046;28;20474;-63
2021/12/29 10:36:47;;;;;;;15.70;14.10;;;10.40;98.30;;;;;;6268082;28;20466;-63
2021/12/29 10:39:55;;;;;;;16.30;14.80;;;10.60;98.00;;;;;;6272864;28;20473;-63
2021/12/29 10:43:01;;;;;;;16.03;14.50;;;10.80;97.80;;;;;;6274162;28;20481;-62
2021/12/29 10:46:05;;;;;;;16.57;14.80;;;10.90;97.70;;;;;;6278443;28;20480;-63
2021/12/29 10:49:10;;;;;;;16.97;15.17;;;11.00;97.50;;;;;;6268539;28;20473;-61
2021/12/29 10:52:14;;;;;;;17.17;15.47;;;11.10;97.50;;;;;;6278205;28;20470;-61
2021/12/29 10:55:20;;;;;;;15.60;13.60;;;11.10;97.20;;;;;;6278046;28;20474;-61
2021/12/29 10:58:26;;;;;;;17.80;15.10;;;11.20;97.20;;;;;;6278717;28;20474;-60
2021/12/29 11:01:36;;;;;;;15.23;13.47;;;11.20;97.20;;;;;;6268458;28;20481;-61
2021/12/29 11:04:41;;;;;;;16.00;14.00;;;11.10;97.20;;;;;;6278320;28;20474;-61
2021/12/29 11:07:44;;;;;;;14.57;12.67;;;10.90;97.40;;;;;;6278967;28;20840;-62
2021/12/29 11:10:48;;;;;;;13.60;12.17;;;10.60;98.00;;;;;;6278243;28;20493;-61
2021/12/29 11:13:53;;;;;;;13.00;11.60;;;10.30;98.70;;;;;;6277883;28;20470;-61
2021/12/29 11:17:04;;;;;;;15.97;13.67;;;10.20;99.40;;;;;;6278158;28;20474;-60
2021/12/29 11:20:10;;;;;;;13.27;11.90;;;10.40;99.90;;;;;;6271177;28;20478;-61
2021/12/29 11:23:16;;;;;;;15.63;13.10;;;12.70;99.90;;;;;;6251342;28;21061;-61
2021/12/29 11:26:28;;;;;;;17.03;12.80;;;15.80;93.50;;;;;;6251453;28;20804;-61
2021/12/29 11:29:31;;;;;;;14.97;13.10;;;15.90;89.70;;;;;;6270718;28;20508;-61
2021/12/29 11:32:36;;;;;;;15.87;14.30;;;15.00;89.30;;;;;;6276431;28;20497;-61
2021/12/29 11:35:43;;;;;;;14.07;12.67;;;13.90;91.00;;;;;;6275930;28;20973;-60
2021/12/29 11:38:47;;;;;;;14.40;12.90;;;15.20;90.90;;;;;;6276971;28;21185;-61
2021/12/29 11:41:51;;;;;;;14.40;13.17;;;19.10;81.40;;;;;;6263156;28;20465;-61
2021/12/29 11:44:54;;;;;;;14.63;13.33;;;22.40;65.50;;;;;;6263828;28;20232;-61
2021/12/29 11:47:57;;;;;;;15.40;14.17;;;25.20;54.10;;;;;;6262261;28;20211;-61
2021/12/29 11:51:03;;;;;;;16.20;14.70;;;27.40;46.00;;;;;;6266413;28;20718;-61
2021/12/29 11:54:12;;;;;;;17.50;15.80;;;29.20;39.80;;;;;;6257985;28;20227;-64
2021/12/29 11:57:18;;;;;;;17.17;15.47;;;30.50;35.30;;;;;;6252592;28;20237;-65
2021/12/29 12:00:24;;;;;;;16.57;15.37;;;31.10;33.40;;;;;;6252950;28;20221;-64
2021/12/29 12:03:40;;;;;;;18.20;16.60;;;31.20;31.40;;;;;;6252196;28;20664;-62
2021/12/29 12:06:45;;;;;;;17.50;15.80;;;28.30;33.00;;;;;;6252311;28;20238;-63
2021/12/29 12:09:50;;;;;;;17.20;15.60;;;25.10;37.60;;;;;;6256555;28;20234;-64
2021/12/29 12:12:53;;;;;;;17.40;15.73;;;23.90;41.00;;;;;;6276727;28;20297;-62
2021/12/29 12:16:07;;;;;;;15.97;14.57;;;25.40;40.10;;;;;;6276397;28;20677;-63
2021/12/29 12:19:19;;;;;;;14.87;13.67;;;26.60;37.70;;;;;;6277474;28;20242;-64
2021/12/29 12:22:24;;;;;;;15.00;13.70;;;27.80;35.60;;;;;;6276776;28;20232;-64
2021/12/29 12:25:29;;;;;;;14.17;12.87;;;25.20;37.40;;;;;;6276153;28;20246;-61
2021/12/29 12:28:44;;;;;;;14.03;12.93;;;22.30;41.80;;;;;;6260876;28;20232;-64
2021/12/29 12:31:59;;;;;;;13.27;12.27;;;20.80;44.80;;;;;;6256581;28;20365;-61
2021/12/29 12:35:05;;;;;;;12.63;11.43;;;21.10;45.10;;;;;;6251378;28;20240;-63
2021/12/29 12:38:21;;;;;;;12.63;11.53;;;21.90;45.40;;;;;;6251494;28;20236;-64
2021/12/29 12:41:24;;;;;;;12.53;11.53;;;24.50;41.40;;;;;;6251568;28;20677;-64
2021/12/29 12:44:37;;;;;;;11.87;10.87;;;26.70;37.80;;;;;;6251081;28;20243;-63
2021/12/29 12:47:41;;;;;;;12.73;11.70;;;28.20;35.00;;;;;;6251112;28;20228;-65
2021/12/29 12:50:45;;;;;;;12.07;11.07;;;29.00;35.00;;;;;;6275233;28;20227;-64
2021/12/29 12:53:57;;;;;;;11.83;10.90;;;30.20;32.20;;;;;;6275432;28;20582;-66
2021/12/29 12:57:03;;;;;;;11.70;10.80;;;30.90;30.60;;;;;;6270474;28;20234;-64
2021/12/29 13:00:28;;;;;;;14.33;12.97;;;31.20;30.90;;;;;;6275012;28;20248;-64
2021/12/29 13:03:33;;;;;;;11.73;10.83;;;32.40;29.50;;;;;;6252519;28;20234;-64
2021/12/29 13:06:37;;;;;;;12.73;11.77;;;31.60;29.10;;;;;;6250003;28;20206;-63
2021/12/29 13:09:48;;;;;;;13.57;12.37;;;30.10;30.00;;;;;;6268571;28;20651;-64
2021/12/29 13:12:57;;;;;;;13.23;11.87;;;27.40;33.10;;;;;;6275558;28;20235;-64
2021/12/29 13:16:02;;;;;;;14.23;12.93;;;24.90;37.10;;;;;;6275028;28;20714;-64
2021/12/29 13:19:06;;;;;;;14.23;12.93;;;24.20;39.20;;;;;;6274944;28;20231;-64
2021/12/29 13:22:24;;;;;;;13.57;12.47;;;25.40;38.80;;;;;;6274770;28;20250;-62
2021/12/29 13:25:29;;;;;;;13.70;12.50;;;26.90;35.90;;;;;;6273570;28;20576;-63
2021/12/29 13:28:34;;;;;;;12.13;11.10;;;27.20;35.20;;;;;;6263053;28;20590;-62
2021/12/29 13:31:39;;;;;;;12.80;11.70;;;26.70;34.80;;;;;;6249725;28;20232;-62
2021/12/29 13:34:42;;;;;;;11.37;10.47;;;24.40;37.50;;;;;;6249767;28;20232;-63
2021/12/29 13:37:45;;;;;;;11.20;10.20;;;22.90;40.60;;;;;;6249826;28;20707;-63
2021/12/29 13:40:53;;;;;;;10.63;9.70;;;23.60;40.00;;;;;;6249692;28;20585;-63
2021/12/29 13:44:00;;;;;;;11.10;10.10;;;24.30;38.70;;;;;;6255966;28;20242;-62
2021/12/29 13:47:03;;;;;;;8.40;7.70;;;25.50;37.60;;;;;;6275121;28;20817;-62
2021/12/29 13:50:11;;;;;;;9.67;8.87;;;26.00;36.10;;;;;;6274640;28;20235;-62
2021/12/29 13:53:15;;;;;;;9.23;8.53;;;26.50;36.00;;;;;;6275153;28;20247;-63
2021/12/29 13:56:26;;;;;;;8.93;8.17;;;27.10;35.00;;;;;;6276015;28;20231;-62
2021/12/29 13:59:29;;;;;;;9.43;8.73;;;27.30;34.50;;;;;;6275562;28;20231;-63
2021/12/29 14:02:32;;;;;;;8.93;8.20;;;27.60;34.40;;;;;;6275290;28;20675;-63
2021/12/29 14:05:38;;;;;;;9.50;8.70;;;27.90;33.90;;;;;;6275414;28;20231;-63
2021/12/29 14:08:42;;;;;;;10.37;9.47;;;27.90;33.80;;;;;;6279382;28;20622;-64
2021/12/29 14:11:47;;;;;;;9.90;9.00;;;27.70;33.70;;;;;;6277721;28;20566;-63
2021/12/29 14:15:01;;;;;;;8.97;8.27;;;27.60;34.00;;;;;;6276846;28;20227;-63
2021/12/29 14:18:20;;;;;;;10.13;9.23;;;27.10;34.80;;;;;;6278582;28;20227;-62
2021/12/29 14:21:25;;;;;;;9.07;8.37;;;26.10;35.30;;;;;;6286098;28;20185;-63
2021/12/29 14:24:29;;;;;;;10.90;10.00;;;24.70;37.60;;;;;;6279692;28;20219;-63
2021/12/29 14:27:34;;;;;;;9.87;8.97;;;23.40;39.60;;;;;;6282185;28;20558;-64
2021/12/29 14:30:42;;;;;;;7.83;7.13;;;22.20;41.30;;;;;;6275185;28;20243;-62
2021/12/29 14:33:48;;;;;;;7.20;6.60;;;20.90;42.80;;;;;;6261190;28;20218;-62
2021/12/29 14:36:54;;;;;;;6.37;5.77;;;19.60;44.30;;;;;;6259333;28;20243;-61
2021/12/29 14:39:57;;;;;;;7.57;6.87;;;18.20;46.80;;;;;;6258099;28;20477;-63
2021/12/29 14:43:09;;;;;;;7.60;6.53;;;17.00;49.40;;;;;;6271380;28;20488;-64
2021/12/29 14:46:12;;;;;;;8.63;7.83;;;15.90;52.00;;;;;;6257695;28;20478;-62
2021/12/29 14:49:15;;;;;;;7.27;6.67;;;15.00;54.50;;;;;;6255695;28;20609;-63
2021/12/29 14:52:19;;;;;;;9.27;8.30;;;14.30;56.40;;;;;;6262631;28;20468;-63
2021/12/29 14:55:25;;;;;;;9.00;8.10;;;13.60;58.40;;;;;;6278664;28;20596;-63
2021/12/29 14:58:31;;;;;;;8.60;7.77;;;13.00;61.30;;;;;;6275485;28;20949;-61
2021/12/29 15:01:34;;;;;;;8.17;7.37;;;12.60;64.60;;;;;;6267118;28;20470;-62
2021/12/29 15:04:39;;;;;;;7.87;7.17;;;12.20;67.90;;;;;;6244199;28;20474;-62
2021/12/29 15:07:44;;;;;;;9.63;8.77;;;11.80;71.50;;;;;;6253195;28;20483;-62
2021/12/29 15:10:54;;;;;;;9.00;7.90;;;11.50;75.20;;;;;;6266971;28;20474;-62
2021/12/29 15:13:59;;;;;;;9.97;7.33;;;11.20;78.80;;;;;;6264346;28;20472;-62
2021/12/29 15:17:05;;;;;;;9.17;8.33;;;11.00;81.90;;;;;;6268182;28;20467;-62
2021/12/29 15:20:09;;;;;;;9.63;8.63;;;10.80;84.70;;;;;;6256385;28;20490;-62
2021/12/29 15:23:14;;;;;;;9.00;7.90;;;10.50;87.30;;;;;;6273674;28;20477;-62
2021/12/29 15:26:21;;;;;;;8.87;7.90;;;10.30;90.10;;;;;;6275967;28;20481;-63
2021/12/29 15:29:27;;;;;;;8.53;7.73;;;10.20;91.20;;;;;;6275823;28;20470;-63
2021/12/29 15:32:30;;;;;;;10.07;8.13;;;10.10;92.30;;;;;;6275340;28;21114;-63
2021/12/29 15:35:34;;;;;;;7.60;6.83;;;9.90;93.80;;;;;;6263691;28;20502;-62
2021/12/29 15:38:37;;;;;;;7.97;7.07;;;9.80;94.70;;;;;;6262261;28;20483;-62
2021/12/29 15:41:41;;;;;;;8.93;8.07;;;9.60;95.40;;;;;;6262005;28;20482;-62
2021/12/29 15:44:46;;;;;;;10.80;7.70;;;9.50;96.20;;;;;;6258009;28;20471;-62
2021/12/29 15:47:50;;;;;;;7.97;7.23;;;9.40;96.80;;;;;;6263650;28;21211;-62
2021/12/29 15:50:54;;;;;;;8.03;7.30;;;9.20;97.30;;;;;;6276206;28;20478;-62
2021/12/29 15:53:57;;;;;;;11.87;9.70;;;9.20;97.70;;;;;;6275369;28;20466;-62